Time;durP1;ratioP1;P1;durP2;ratioP2;P2;SDS_P1;SDS_P2;PMS_P1;PMS_P2;Temp;Humidity;BMP_temperature;BMP_pressure;BME280_temperature;BME280_humidity;BME280_pressure;Samples;Min_cycle;Max_cycle;Signal;HPM_P1;HPM_P2
2021/01/28 00:00:33;;;;;;;7.15;4.88;;;0.70;99.90;;;;;;5030268;28;20087;-73
2021/01/28 00:02:59;;;;;;;9.60;5.63;;;0.70;99.90;;;;;;5030530;28;20043;-72
2021/01/28 00:05:28;;;;;;;8.75;4.95;;;0.70;99.90;;;;;;5030329;28;20623;-72
2021/01/28 00:07:54;;;;;;;6.75;4.35;;;0.70;99.90;;;;;;5027132;28;20086;-72
2021/01/28 00:10:20;;;;;;;10.15;5.53;;;0.70;99.90;;;;;;5029628;28;20017;-72
2021/01/28 00:12:46;;;;;;;8.45;5.25;;;0.70;99.90;;;;;;5019740;28;20452;-72
2021/01/28 00:15:15;;;;;;;6.57;4.65;;;0.70;99.90;;;;;;5030177;28;20061;-72
2021/01/28 00:17:40;;;;;;;7.60;4.55;;;0.60;99.90;;;;;;5011367;28;20037;-72
2021/01/28 00:20:20;;;;;;;8.05;4.90;;;0.60;99.90;;;;;;5010080;28;20026;-72
2021/01/28 00:22:46;;;;;;;7.35;4.80;;;0.60;99.90;;;;;;5027511;28;20501;-72
2021/01/28 00:25:15;;;;;;;8.82;5.55;;;0.60;99.90;;;;;;5029876;28;20029;-71
2021/01/28 00:27:41;;;;;;;9.68;5.40;;;0.60;99.90;;;;;;5011471;28;20485;-72
2021/01/28 00:30:11;;;;;;;8.02;4.63;;;0.70;99.90;;;;;;5030198;28;20034;-72
2021/01/28 00:32:36;;;;;;;6.75;5.15;;;0.60;99.90;;;;;;5029966;28;20041;-72
2021/01/28 00:35:03;;;;;;;8.43;4.57;;;0.60;99.90;;;;;;5012489;28;20041;-73
2021/01/28 00:37:28;;;;;;;7.45;4.70;;;0.60;99.90;;;;;;5025927;28;21347;-72
2021/01/28 00:39:57;;;;;;;9.18;5.65;;;0.60;99.90;;;;;;5010535;28;20027;-72
2021/01/28 00:42:23;;;;;;;8.70;5.32;;;0.70;99.90;;;;;;5015625;28;20037;-72
2021/01/28 00:44:49;;;;;;;8.88;5.00;;;0.70;99.90;;;;;;5033646;28;20025;-73
2021/01/28 00:47:16;;;;;;;10.75;6.43;;;0.70;99.90;;;;;;5016097;28;20022;-72
2021/01/28 00:49:42;;;;;;;9.15;5.05;;;0.80;99.90;;;;;;5020974;28;20029;-72
2021/01/28 00:52:07;;;;;;;8.63;5.32;;;0.80;99.90;;;;;;5026291;28;20504;-72
2021/01/28 00:54:33;;;;;;;9.63;5.53;;;0.80;99.90;;;;;;5035298;28;20036;-72
2021/01/28 00:56:59;;;;;;;9.10;5.70;;;0.80;99.90;;;;;;5013633;28;20445;-72
2021/01/28 00:59:24;;;;;;;10.23;5.72;;;0.80;99.90;;;;;;4995806;28;20057;-72
2021/01/28 01:01:50;;;;;;;8.77;5.50;;;0.80;99.90;;;;;;4995515;28;20038;-72
2021/01/28 01:04:16;;;;;;;9.38;5.65;;;0.80;99.90;;;;;;4980103;28;20121;-72
2021/01/28 01:06:42;;;;;;;7.15;4.68;;;0.80;99.90;;;;;;4978701;28;20111;-72
2021/01/28 01:09:07;;;;;;;9.48;5.30;;;0.80;99.90;;;;;;5011944;28;20481;-73
2021/01/28 01:11:46;;;;;;;8.45;5.28;;;0.80;99.90;;;;;;5001105;28;20034;-72
2021/01/28 01:14:12;;;;;;;9.77;5.43;;;0.80;99.90;;;;;;5033588;28;20088;-72
2021/01/28 01:16:38;;;;;;;8.30;5.00;;;0.80;99.90;;;;;;5031777;28;20040;-72
2021/01/28 01:19:10;;;;;;;8.77;5.40;;;0.80;99.90;;;;;;5015346;28;20080;-72
2021/01/28 01:21:54;;;;;;;7.55;4.63;;;0.80;99.90;;;;;;5033326;28;20405;-72
2021/01/28 01:24:24;;;;;;;6.25;4.22;;;0.80;99.90;;;;;;5015384;28;20091;-72
2021/01/28 01:26:49;;;;;;;9.43;5.53;;;0.80;99.90;;;;;;5013663;28;20029;-71
2021/01/28 01:29:15;;;;;;;9.25;5.32;;;0.80;99.90;;;;;;5015404;28;20120;-73
2021/01/28 01:32:01;;;;;;;10.18;6.13;;;0.80;99.90;;;;;;5028968;28;20049;-72
2021/01/28 01:34:33;;;;;;;8.30;5.35;;;0.80;99.90;;;;;;5015339;28;20572;-73
2021/01/28 01:37:04;;;;;;;10.88;5.38;;;0.90;99.90;;;;;;5014005;28;20680;-72
2021/01/28 01:39:30;;;;;;;10.38;5.97;;;0.90;99.90;;;;;;4996619;28;20034;-72
2021/01/28 01:41:56;;;;;;;9.13;5.45;;;0.90;99.90;;;;;;5011977;28;20030;-72
2021/01/28 01:44:25;;;;;;;8.55;5.85;;;0.90;99.90;;;;;;5011992;28;20030;-72
2021/01/28 01:47:17;;;;;;;9.45;5.70;;;0.90;99.90;;;;;;5011535;28;20157;-72
2021/01/28 01:49:44;;;;;;;11.10;5.85;;;0.80;99.90;;;;;;5012967;28;20426;-71
2021/01/28 01:52:12;;;;;;;9.38;5.32;;;0.90;99.90;;;;;;5012223;28;20046;-72
2021/01/28 01:54:45;;;;;;;9.73;5.63;;;0.90;99.90;;;;;;5017673;28;20037;-73
2021/01/28 01:57:25;;;;;;;9.38;5.55;;;0.90;99.90;;;;;;5031005;28;20038;-73
2021/01/28 02:00:18;;;;;;;9.23;5.55;;;0.90;99.90;;;;;;5015752;28;20769;-71
2021/01/28 02:02:48;;;;;;;10.50;6.10;;;0.90;99.90;;;;;;5030321;28;20042;-72
2021/01/28 02:05:35;;;;;;;11.00;5.80;;;1.00;99.90;;;;;;5032558;28;20107;-72
2021/01/28 02:08:20;;;;;;;10.95;5.93;;;0.90;99.90;;;;;;5030089;28;20049;-72
2021/01/28 02:11:09;;;;;;;9.80;5.85;;;0.90;99.90;;;;;;5016381;28;20033;-71
2021/01/28 02:14:00;;;;;;;10.77;6.00;;;1.00;99.90;;;;;;5014747;28;20022;-72
2021/01/28 02:17:17;;;;;;;8.90;5.20;;;0.90;99.90;;;;;;5013176;28;20030;-72
2021/01/28 02:20:18;;;;;;;8.55;5.05;;;0.90;99.90;;;;;;5012573;28;20037;-72
2021/01/28 02:23:31;;;;;;;8.63;5.47;;;0.90;99.90;;;;;;5000458;28;20044;-73
2021/01/28 02:25:57;;;;;;;8.85;5.07;;;0.90;99.90;;;;;;5005852;28;20096;-73
2021/01/28 02:28:23;;;;;;;8.88;5.40;;;0.90;99.90;;;;;;5029443;28;20034;-72
2021/01/28 02:30:57;;;;;;;9.82;5.60;;;0.90;99.90;;;;;;5014256;28;20095;-71
2021/01/28 02:33:43;;;;;;;8.65;5.05;;;0.90;99.90;;;;;;5031012;28;20034;-72
2021/01/28 02:36:44;;;;;;;10.30;5.38;;;0.90;99.90;;;;;;5029419;28;20556;-73
2021/01/28 02:39:36;;;;;;;10.30;5.72;;;0.90;99.90;;;;;;4989468;28;20030;-72
2021/01/28 02:42:25;;;;;;;8.07;4.88;;;0.90;99.90;;;;;;4994490;28;20033;-72
2021/01/28 02:44:59;;;;;;;10.05;5.50;;;0.90;99.90;;;;;;4994414;28;20037;-73
2021/01/28 02:47:54;;;;;;;9.80;5.30;;;0.90;99.90;;;;;;4988020;28;20487;-72
2021/01/28 02:50:31;;;;;;;10.48;5.72;;;1.00;99.90;;;;;;4994270;28;20033;-72
2021/01/28 02:53:02;;;;;;;10.93;6.10;;;1.00;99.90;;;;;;4994360;28;20061;-72
2021/01/28 02:55:32;;;;;;;10.23;5.50;;;1.00;99.90;;;;;;4993956;28;20524;-72
2021/01/28 02:57:58;;;;;;;10.60;5.97;;;1.00;99.90;;;;;;4992782;28;20108;-72
2021/01/28 03:00:34;;;;;;;10.57;5.40;;;1.00;99.90;;;;;;4993908;28;20049;-73
2021/01/28 03:03:09;;;;;;;11.70;6.13;;;1.00;99.90;;;;;;4993280;28;20036;-72
2021/01/28 03:05:44;;;;;;;10.63;5.80;;;1.10;99.90;;;;;;4993965;28;20030;-73
2021/01/28 03:08:11;;;;;;;9.77;5.40;;;1.00;99.90;;;;;;5001026;28;20034;-73
2021/01/28 03:10:37;;;;;;;9.32;4.93;;;1.00;99.90;;;;;;5013350;28;20064;-72
2021/01/28 03:13:07;;;;;;;8.38;5.03;;;1.00;99.90;;;;;;5014083;28;20029;-73
2021/01/28 03:15:41;;;;;;;11.68;6.45;;;1.00;99.90;;;;;;5013396;28;20037;-72
2021/01/28 03:18:07;;;;;;;11.93;5.47;;;1.00;99.90;;;;;;5012020;28;20096;-72
2021/01/28 03:20:35;;;;;;;10.48;5.70;;;1.00;99.90;;;;;;5013342;28;20034;-72
2021/01/28 03:23:01;;;;;;;9.32;5.25;;;1.00;99.90;;;;;;5031121;28;20105;-73
2021/01/28 03:25:52;;;;;;;12.23;5.60;;;1.00;99.90;;;;;;5016524;28;20033;-73
2021/01/28 03:28:19;;;;;;;12.88;5.90;;;1.00;99.90;;;;;;5019493;28;20449;-73
2021/01/28 03:30:49;;;;;;;13.27;5.43;;;1.00;99.90;;;;;;5019275;28;20041;-72
2021/01/28 03:33:18;;;;;;;11.40;5.57;;;1.10;99.90;;;;;;5029837;28;20367;-72
2021/01/28 03:35:44;;;;;;;12.70;6.20;;;1.10;99.90;;;;;;5029322;28;20049;-73
2021/01/28 03:38:14;;;;;;;10.55;5.10;;;1.10;99.90;;;;;;5021811;28;20025;-71
2021/01/28 03:40:42;;;;;;;10.75;5.63;;;1.10;99.90;;;;;;5009619;28;20029;-73
2021/01/28 03:43:08;;;;;;;9.77;5.53;;;1.10;99.90;;;;;;5009808;28;20587;-72
2021/01/28 03:45:34;;;;;;;9.30;4.88;;;1.00;99.90;;;;;;4993422;28;20117;-72
2021/01/28 03:48:01;;;;;;;11.88;5.53;;;1.00;99.90;;;;;;5008194;28;20069;-72
2021/01/28 03:50:50;;;;;;;9.75;4.75;;;1.00;99.90;;;;;;5010199;28;20658;-72
2021/01/28 03:53:34;;;;;;;11.43;6.10;;;1.10;99.90;;;;;;5009464;28;20042;-72
2021/01/28 03:56:18;;;;;;;13.40;5.95;;;1.10;99.90;;;;;;5028710;28;20036;-73
2021/01/28 03:58:44;;;;;;;11.23;5.93;;;1.10;99.90;;;;;;5012606;28;20209;-73
2021/01/28 04:01:32;;;;;;;8.98;4.68;;;1.00;99.90;;;;;;4999493;28;20025;-73
2021/01/28 04:04:08;;;;;;;9.23;4.93;;;1.00;99.90;;;;;;4997759;28;20025;-73
2021/01/28 04:06:54;;;;;;;10.00;5.07;;;1.00;99.90;;;;;;5011017;28;20037;-72
2021/01/28 04:09:33;;;;;;;10.73;5.70;;;1.00;99.90;;;;;;4997919;28;20058;-72
2021/01/28 04:12:11;;;;;;;11.73;4.60;;;1.00;99.90;;;;;;5014767;28;20480;-73
2021/01/28 04:15:08;;;;;;;9.45;4.78;;;1.00;99.90;;;;;;5022266;28;20080;-72
2021/01/28 04:17:38;;;;;;;11.30;5.40;;;1.00;99.90;;;;;;5011076;28;20034;-72
2021/01/28 04:20:35;;;;;;;10.23;5.03;;;1.00;99.90;;;;;;5015210;28;20514;-73
2021/01/28 04:23:06;;;;;;;12.52;6.15;;;1.00;99.90;;;;;;4996709;28;20026;-72
2021/01/28 04:25:49;;;;;;;9.70;5.13;;;1.00;99.90;;;;;;5012453;28;20025;-71
2021/01/28 04:28:15;;;;;;;10.65;5.18;;;1.10;99.90;;;;;;5011299;28;20120;-72
2021/01/28 04:30:52;;;;;;;9.20;4.93;;;1.00;99.90;;;;;;4997697;28;20036;-72
2021/01/28 04:33:18;;;;;;;13.45;5.85;;;1.00;99.90;;;;;;5030232;28;20033;-73
2021/01/28 04:35:43;;;;;;;10.10;5.18;;;1.00;99.90;;;;;;5030051;28;20038;-72
2021/01/28 04:38:10;;;;;;;10.57;5.28;;;1.00;99.90;;;;;;5003906;28;20631;-72
2021/01/28 04:40:44;;;;;;;11.85;5.13;;;1.00;99.90;;;;;;4992726;28;20056;-71
2021/01/28 04:43:26;;;;;;;8.93;5.43;;;1.00;99.90;;;;;;4992799;28;20030;-72
2021/01/28 04:46:29;;;;;;;11.63;5.35;;;1.10;99.90;;;;;;5009073;28;20046;-72
2021/01/28 04:49:18;;;;;;;10.18;5.05;;;1.10;99.90;;;;;;5010151;28;20073;-72
2021/01/28 04:52:04;;;;;;;9.68;4.82;;;1.10;99.90;;;;;;5010129;28;20053;-72
2021/01/28 04:54:35;;;;;;;9.55;4.78;;;1.10;99.90;;;;;;4992877;28;20034;-74
2021/01/28 04:57:08;;;;;;;9.57;5.15;;;1.10;99.90;;;;;;5007662;28;20034;-71
2021/01/28 04:59:45;;;;;;;8.93;4.90;;;1.10;99.90;;;;;;4992476;28;20029;-73
2021/01/28 05:02:18;;;;;;;10.25;5.18;;;1.10;99.90;;;;;;5009172;28;20030;-72
2021/01/28 05:05:08;;;;;;;11.00;5.30;;;1.00;99.90;;;;;;5009432;28;20029;-72
2021/01/28 05:07:52;;;;;;;10.90;5.00;;;1.00;99.90;;;;;;5014838;28;20052;-72
2021/01/28 05:10:45;;;;;;;11.43;5.25;;;1.10;99.90;;;;;;5015021;28;20069;-73
2021/01/28 05:13:45;;;;;;;9.23;4.68;;;1.10;99.90;;;;;;5012206;28;20029;-73
2021/01/28 05:16:51;;;;;;;10.88;5.47;;;1.10;99.90;;;;;;5028738;28;20144;-73
2021/01/28 05:19:50;;;;;;;10.68;4.97;;;1.10;99.90;;;;;;5029319;28;20616;-72
2021/01/28 05:22:38;;;;;;;9.95;5.07;;;1.10;99.90;;;;;;5029415;28;20490;-74
2021/01/28 05:25:27;;;;;;;8.45;4.43;;;1.00;99.90;;;;;;5028622;28;20040;-73
2021/01/28 05:28:28;;;;;;;8.60;4.40;;;1.00;99.90;;;;;;5032488;28;20474;-72
2021/01/28 05:31:32;;;;;;;10.48;4.55;;;1.00;99.90;;;;;;5027644;28;20033;-73
2021/01/28 05:34:27;;;;;;;11.67;5.13;;;1.10;99.90;;;;;;4994253;28;20556;-73
2021/01/28 05:37:09;;;;;;;12.43;5.40;;;1.10;99.90;;;;;;5031101;28;20112;-73
2021/01/28 05:40:14;;;;;;;10.70;5.45;;;1.10;99.90;;;;;;5024778;28;20366;-73
2021/01/28 05:42:57;;;;;;;11.30;4.90;;;1.00;99.90;;;;;;5013514;28;20022;-73
2021/01/28 05:45:35;;;;;;;11.80;4.32;;;1.00;99.90;;;;;;5019718;28;20033;-73
2021/01/28 05:48:37;;;;;;;11.80;5.63;;;1.00;99.90;;;;;;4955427;28;20039;-73
2021/01/28 05:51:22;;;;;;;9.43;5.47;;;1.10;99.90;;;;;;5013085;28;20509;-73
2021/01/28 05:54:01;;;;;;;12.13;5.00;;;1.10;99.90;;;;;;5011802;28;20026;-73
2021/01/28 05:56:54;;;;;;;12.63;5.28;;;1.00;99.90;;;;;;5009461;28;20100;-73
2021/01/28 05:59:58;;;;;;;12.53;5.50;;;1.10;99.90;;;;;;4995405;28;20570;-72
2021/01/28 06:03:14;;;;;;;12.52;5.05;;;1.10;99.90;;;;;;5011821;28;20025;-73
2021/01/28 06:06:30;;;;;;;9.85;3.55;;;1.10;99.90;;;;;;4894225;29;20249;-73
2021/01/28 06:09:45;;;;;;;9.23;4.22;;;1.20;99.90;;;;;;4929051;29;20055;-73
2021/01/28 06:12:37;;;;;;;12.90;5.72;;;1.10;99.90;;;;;;5032489;28;20029;-73
2021/01/28 06:15:44;;;;;;;13.13;4.97;;;1.10;99.90;;;;;;5024625;28;20116;-73
2021/01/28 06:18:39;;;;;;;11.57;5.00;;;1.10;99.90;;;;;;5013051;28;20108;-73
2021/01/28 06:21:38;;;;;;;9.60;4.20;;;1.10;99.90;;;;;;5032274;28;20563;-73
2021/01/28 06:24:29;;;;;;;10.57;4.38;;;1.10;99.90;;;;;;5031308;28;20256;-72
2021/01/28 06:27:05;;;;;;;9.75;4.47;;;1.10;99.90;;;;;;5027896;28;20172;-73
2021/01/28 06:29:49;;;;;;;;;;;1.10;99.90;;;;;;5014797;28;20106;-72
2021/01/28 06:33:10;;;;;;;10.95;5.22;;;1.20;99.90;;;;;;5014560;28;19909;-72
2021/01/28 06:36:49;;;;;;;11.02;4.35;;;1.20;99.90;;;;;;5022495;28;20041;-72
2021/01/28 06:39:39;;;;;;;12.13;4.78;;;1.10;99.90;;;;;;4998231;28;20135;-72
2021/01/28 06:42:43;;;;;;;11.25;4.78;;;1.10;99.90;;;;;;5011916;28;20042;-73
2021/01/28 06:45:53;;;;;;;13.32;4.93;;;1.20;99.90;;;;;;5011499;28;20418;-74
2021/01/28 06:48:33;;;;;;;10.73;4.15;;;1.10;99.90;;;;;;5009803;28;20025;-73
2021/01/28 06:51:26;;;;;;;10.50;4.45;;;1.20;99.90;;;;;;5010928;28;20498;-73
2021/01/28 06:54:17;;;;;;;10.10;4.28;;;1.20;99.90;;;;;;5010653;28;20101;-73
2021/01/28 06:57:22;;;;;;;11.40;4.22;;;1.10;99.90;;;;;;4991205;28;20041;-72
2021/01/28 07:00:35;;;;;;;11.15;5.07;;;1.20;99.90;;;;;;5021943;28;20033;-73
2021/01/28 07:03:01;;;;;;;11.60;4.65;;;1.20;99.90;;;;;;5009446;28;20037;-73
2021/01/28 07:06:06;;;;;;;12.90;4.97;;;1.20;99.90;;;;;;5003867;28;20026;-73
2021/01/28 07:09:02;;;;;;;11.70;4.55;;;1.20;99.90;;;;;;5017449;28;20365;-72
2021/01/28 07:11:41;;;;;;;11.18;4.45;;;1.30;99.90;;;;;;5048516;28;20029;-72
2021/01/28 07:14:39;;;;;;;12.70;5.30;;;1.20;99.90;;;;;;5011531;28;20067;-74
2021/01/28 07:17:31;;;;;;;10.23;4.65;;;1.20;99.90;;;;;;5031903;28;20083;-74
2021/01/28 07:20:04;;;;;;;14.75;5.32;;;1.30;99.90;;;;;;5049764;28;20052;-72
2021/01/28 07:22:41;;;;;;;12.13;5.18;;;1.30;99.90;;;;;;5032913;28;20037;-74
2021/01/28 07:25:32;;;;;;;11.48;4.13;;;1.30;99.90;;;;;;5048759;28;20111;-74
2021/01/28 07:28:25;;;;;;;15.00;5.38;;;1.30;99.90;;;;;;5044582;28;20083;-74
2021/01/28 07:31:11;;;;;;;11.70;4.95;;;1.30;99.90;;;;;;5049644;28;20025;-74
2021/01/28 07:33:39;;;;;;;10.95;5.03;;;1.40;99.90;;;;;;5017251;28;20041;-73
2021/01/28 07:36:37;;;;;;;14.47;6.27;;;1.30;99.90;;;;;;5031534;28;20029;-74
2021/01/28 07:39:29;;;;;;;11.18;4.68;;;1.40;99.90;;;;;;5036703;28;20740;-73
2021/01/28 07:42:28;;;;;;;;;;;1.40;99.90;;;;;;4986127;28;20044;-73
2021/01/28 07:45:34;;;;;;;15.10;5.60;;;1.40;99.90;;;;;;5023807;28;19908;-74
2021/01/28 07:48:27;;;;;;;12.25;5.00;;;1.50;99.90;;;;;;5014199;28;20025;-74
2021/01/28 07:51:30;;;;;;;11.07;4.60;;;1.40;99.90;;;;;;5022066;28;20468;-74
2021/01/28 07:53:56;;;;;;;12.52;5.22;;;1.40;99.90;;;;;;5029187;28;20061;-73
2021/01/28 07:56:42;;;;;;;11.82;5.38;;;1.40;99.90;;;;;;5031159;28;20033;-72
2021/01/28 07:59:41;;;;;;;12.70;5.05;;;1.50;99.90;;;;;;5010359;28;20029;-73
2021/01/28 08:02:18;;;;;;;13.32;5.55;;;1.50;99.90;;;;;;5015197;28;20025;-74
2021/01/28 08:05:03;;;;;;;14.20;5.20;;;1.50;99.90;;;;;;5034803;28;20021;-73
2021/01/28 08:07:40;;;;;;;10.88;5.43;;;1.60;99.90;;;;;;5032480;28;20033;-73
2021/01/28 08:10:24;;;;;;;11.93;4.97;;;1.60;99.90;;;;;;5007568;28;20035;-74
2021/01/28 08:13:08;;;;;;;17.52;5.75;;;1.60;99.90;;;;;;4994584;28;20037;-73
2021/01/28 08:15:40;;;;;;;13.68;5.63;;;1.70;99.90;;;;;;5034788;28;20128;-74
2021/01/28 08:18:22;;;;;;;15.48;5.97;;;1.70;99.90;;;;;;5014942;28;20025;-73
2021/01/28 08:20:49;;;;;;;13.45;5.03;;;1.70;99.90;;;;;;5008528;28;20358;-74
2021/01/28 08:23:17;;;;;;;13.48;4.97;;;1.70;99.90;;;;;;5049555;28;20078;-74
2021/01/28 08:26:06;;;;;;;13.18;5.05;;;1.70;99.90;;;;;;5049700;28;20036;-74
2021/01/28 08:28:36;;;;;;;10.30;4.90;;;1.70;99.90;;;;;;5027371;28;20021;-74
2021/01/28 08:31:23;;;;;;;10.20;4.93;;;1.60;99.90;;;;;;5014641;28;20095;-75
2021/01/28 08:33:59;;;;;;;9.18;4.53;;;1.60;99.90;;;;;;4998207;28;20491;-74
2021/01/28 08:36:27;;;;;;;11.50;4.65;;;1.60;99.90;;;;;;5018854;28;20129;-74
2021/01/28 08:39:11;;;;;;;13.55;5.53;;;1.60;99.90;;;;;;5017556;28;20021;-74
2021/01/28 08:41:37;;;;;;;11.82;4.93;;;1.70;99.90;;;;;;5021419;28;20050;-73
2021/01/28 08:44:07;;;;;;;10.77;4.85;;;1.80;99.90;;;;;;5020507;28;20022;-74
2021/01/28 08:46:34;;;;;;;8.77;4.00;;;1.80;99.90;;;;;;5002369;28;20845;-75
2021/01/28 08:49:20;;;;;;;10.55;4.88;;;1.80;99.90;;;;;;5018671;28;20515;-74
2021/01/28 08:52:02;;;;;;;10.38;4.75;;;1.80;99.90;;;;;;5016745;28;20129;-74
2021/01/28 08:54:35;;;;;;;9.85;4.28;;;1.80;99.90;;;;;;5020946;28;20030;-75
2021/01/28 08:57:02;;;;;;;8.50;4.18;;;1.80;99.90;;;;;;5013216;28;20057;-74
2021/01/28 08:59:38;;;;;;;11.00;5.05;;;1.90;99.90;;;;;;4995373;28;20133;-75
2021/01/28 09:02:04;;;;;;;12.93;6.53;;;2.00;99.90;;;;;;5020759;28;20213;-74
2021/01/28 09:04:37;;;;;;;10.95;5.50;;;2.00;99.90;;;;;;5007257;28;20029;-75
2021/01/28 09:07:03;;;;;;;8.80;4.25;;;2.00;99.90;;;;;;5002189;28;20045;-74
2021/01/28 09:09:33;;;;;;;12.73;5.45;;;2.00;99.90;;;;;;5019290;28;20037;-74
2021/01/28 09:12:21;;;;;;;14.80;5.45;;;2.00;99.90;;;;;;4987924;28;20502;-74
2021/01/28 09:14:46;;;;;;;10.07;4.80;;;2.00;99.90;;;;;;5005848;28;20112;-74
2021/01/28 09:17:31;;;;;;;9.45;4.45;;;2.10;99.90;;;;;;5019974;28;20041;-75
2021/01/28 09:19:59;;;;;;;10.73;4.47;;;2.10;99.90;;;;;;5016816;28;20060;-74
2021/01/28 09:22:38;;;;;;;8.93;4.90;;;2.10;99.90;;;;;;5022848;28;20041;-74
2021/01/28 09:25:22;;;;;;;10.75;4.70;;;2.10;99.90;;;;;;5002592;28;20044;-75
2021/01/28 09:28:01;;;;;;;8.38;4.55;;;2.10;99.90;;;;;;5012106;28;20033;-74
2021/01/28 09:30:40;;;;;;;11.30;5.88;;;2.10;99.90;;;;;;5027642;28;20030;-75
2021/01/28 09:33:36;;;;;;;10.35;4.80;;;2.10;99.90;;;;;;5029704;28;20503;-75
2021/01/28 09:36:19;;;;;;;10.93;5.18;;;2.10;99.90;;;;;;5028480;28;20447;-74
2021/01/28 09:39:19;;;;;;;11.38;5.07;;;2.10;99.90;;;;;;5028604;28;20026;-77
2021/01/28 09:41:53;;;;;;;9.82;5.00;;;2.10;99.90;;;;;;5029687;28;20433;-77
2021/01/28 09:44:42;;;;;;;10.15;4.68;;;2.10;99.90;;;;;;5011792;28;20053;-76
2021/01/28 09:47:31;;;;;;;7.88;4.47;;;2.10;99.90;;;;;;5024883;28;20513;-77
2021/01/28 09:50:06;;;;;;;13.15;5.05;;;2.10;99.90;;;;;;5026817;28;20033;-76
2021/01/28 09:52:34;;;;;;;9.82;5.13;;;2.10;99.90;;;;;;5004895;28;20118;-76
2021/01/28 09:55:09;;;;;;;10.32;4.95;;;2.10;99.90;;;;;;5031097;28;20030;-76
2021/01/28 09:57:35;;;;;;;9.35;5.07;;;2.10;99.90;;;;;;5032033;28;20041;-77
2021/01/28 10:00:03;;;;;;;13.20;5.93;;;2.10;99.90;;;;;;5036131;28;20024;-77
2021/01/28 10:02:59;;;;;;;11.93;5.43;;;2.10;99.90;;;;;;5036149;28;20065;-77
2021/01/28 10:05:27;;;;;;;11.82;5.60;;;2.10;99.90;;;;;;5009997;28;20025;-77
2021/01/28 10:07:53;;;;;;;11.52;5.30;;;2.20;99.90;;;;;;5008340;28;20029;-77
2021/01/28 10:10:32;;;;;;;8.85;4.85;;;2.20;99.90;;;;;;5011270;28;20124;-77
2021/01/28 10:13:01;;;;;;;9.93;4.93;;;2.10;99.90;;;;;;5026580;28;20112;-77
2021/01/28 10:15:27;;;;;;;11.55;5.38;;;2.10;99.90;;;;;;5012491;28;20120;-77
2021/01/28 10:17:53;;;;;;;12.10;6.50;;;2.20;99.90;;;;;;5025383;28;20461;-76
2021/01/28 10:20:19;;;;;;;12.00;5.55;;;2.10;99.90;;;;;;5023727;28;20374;-77
2021/01/28 10:22:46;;;;;;;13.18;5.82;;;2.20;99.90;;;;;;4993124;28;20029;-77
2021/01/28 10:25:14;;;;;;;11.30;5.10;;;2.20;99.90;;;;;;5007920;28;20030;-77
2021/01/28 10:27:40;;;;;;;11.48;5.20;;;2.20;99.90;;;;;;5008250;28;20030;-76
2021/01/28 10:30:08;;;;;;;13.10;6.00;;;2.10;99.90;;;;;;5018776;28;20037;-76
2021/01/28 10:32:34;;;;;;;11.25;5.85;;;2.10;99.90;;;;;;5005465;28;20034;-76
2021/01/28 10:35:00;;;;;;;10.75;5.45;;;2.10;99.90;;;;;;5017161;28;20033;-77
2021/01/28 10:37:26;;;;;;;15.15;6.70;;;2.10;99.90;;;;;;4997447;28;20409;-77
2021/01/28 10:39:52;;;;;;;10.50;5.72;;;2.00;99.90;;;;;;5026659;28;20029;-76
2021/01/28 10:42:19;;;;;;;11.85;5.63;;;2.00;99.90;;;;;;5023436;28;20021;-77
2021/01/28 10:44:47;;;;;;;12.10;5.60;;;1.90;99.90;;;;;;5034122;28;20064;-76
2021/01/28 10:47:16;;;;;;;15.93;6.75;;;1.90;99.90;;;;;;5019781;28;20043;-76
2021/01/28 10:49:42;;;;;;;13.55;6.18;;;1.90;99.90;;;;;;5032253;28;20028;-76
2021/01/28 10:52:08;;;;;;;14.18;6.45;;;1.80;99.90;;;;;;5033675;28;20032;-78
2021/01/28 10:54:34;;;;;;;13.45;6.00;;;1.80;99.90;;;;;;5044185;28;20037;-77
2021/01/28 10:56:59;;;;;;;10.75;5.50;;;1.80;99.90;;;;;;5002382;28;20049;-77
2021/01/28 10:59:25;;;;;;;12.27;6.07;;;1.70;99.90;;;;;;5018872;28;20028;-77
2021/01/28 11:01:51;;;;;;;12.30;5.50;;;1.70;99.90;;;;;;5013234;28;20979;-78
2021/01/28 11:04:16;;;;;;;12.82;5.82;;;1.70;99.90;;;;;;5017506;28;20103;-77
2021/01/28 11:06:42;;;;;;;11.60;6.13;;;1.60;99.90;;;;;;5013878;28;20045;-75
2021/01/28 11:09:08;;;;;;;13.15;6.07;;;1.60;99.90;;;;;;5021492;28;20029;-76
2021/01/28 11:11:34;;;;;;;15.50;5.90;;;1.60;99.90;;;;;;5015990;28;20653;-77
2021/01/28 11:13:59;;;;;;;14.57;6.35;;;1.50;99.90;;;;;;4999371;28;20038;-77
2021/01/28 11:16:26;;;;;;;11.80;5.65;;;1.50;99.90;;;;;;5016474;28;20028;-77
2021/01/28 11:18:54;;;;;;;15.20;5.97;;;1.50;99.90;;;;;;4986057;28;20099;-77
2021/01/28 11:21:21;;;;;;;16.75;6.40;;;1.50;99.90;;;;;;5002206;28;20050;-77
2021/01/28 11:23:47;;;;;;;11.52;5.43;;;1.50;99.90;;;;;;5026020;28;20013;-77
2021/01/28 11:26:13;;;;;;;14.50;6.00;;;1.40;99.90;;;;;;5001644;28;20032;-77
2021/01/28 11:28:39;;;;;;;12.68;5.50;;;1.40;99.90;;;;;;5004220;28;20033;-76
2021/01/28 11:31:05;;;;;;;10.93;5.90;;;1.40;99.90;;;;;;5001987;28;20076;-77
2021/01/28 11:33:34;;;;;;;11.77;5.55;;;1.40;99.90;;;;;;5009361;28;20034;-77
2021/01/28 11:36:01;;;;;;;10.10;5.32;;;1.40;99.90;;;;;;5001640;28;20043;-78
2021/01/28 11:38:26;;;;;;;12.43;5.65;;;1.40;99.90;;;;;;5015883;28;20037;-76
2021/01/28 11:40:53;;;;;;;10.95;5.57;;;1.40;99.90;;;;;;5009059;28;20034;-76
2021/01/28 11:43:19;;;;;;;12.75;5.55;;;1.40;99.90;;;;;;5004446;28;20516;-78
2021/01/28 11:45:46;;;;;;;10.80;5.40;;;1.30;99.90;;;;;;5027792;28;20390;-76
2021/01/28 11:48:12;;;;;;;15.85;5.60;;;1.30;99.90;;;;;;5026723;28;20057;-78
2021/01/28 11:50:38;;;;;;;9.07;5.18;;;1.20;99.90;;;;;;5006088;28;20068;-78
2021/01/28 11:53:06;;;;;;;11.75;5.60;;;1.20;99.90;;;;;;5021134;28;20120;-76
2021/01/28 11:55:32;;;;;;;13.63;5.60;;;1.20;99.90;;;;;;4993950;28;20464;-76
2021/01/28 11:57:59;;;;;;;12.30;5.05;;;1.30;99.90;;;;;;5022787;28;20033;-76
2021/01/28 12:00:26;;;;;;;9.85;4.75;;;1.30;99.90;;;;;;5027042;28;20025;-76
2021/01/28 12:02:52;;;;;;;13.73;6.38;;;1.30;99.90;;;;;;5026164;28;20029;-76
2021/01/28 12:05:20;;;;;;;11.43;5.32;;;1.30;99.90;;;;;;5027907;28;20033;-77
2021/01/28 12:07:46;;;;;;;10.07;5.03;;;1.30;99.90;;;;;;5028300;28;20014;-78
2021/01/28 12:10:16;;;;;;;8.50;4.95;;;1.40;99.90;;;;;;5026720;28;20573;-77
2021/01/28 12:12:42;;;;;;;9.82;4.63;;;1.40;99.90;;;;;;4992526;28;20036;-76
2021/01/28 12:15:08;;;;;;;8.30;4.68;;;1.40;99.90;;;;;;5020995;28;20029;-76
2021/01/28 12:17:34;;;;;;;10.13;4.60;;;1.40;99.90;;;;;;5011221;28;20041;-77
2021/01/28 12:20:00;;;;;;;10.15;4.88;;;1.40;99.90;;;;;;5016200;28;20032;-76
2021/01/28 12:22:26;;;;;;;7.47;3.92;;;1.40;99.90;;;;;;4993364;28;20029;-77
2021/01/28 12:24:52;;;;;;;7.25;3.63;;;1.50;99.90;;;;;;5011695;28;20036;-77
2021/01/28 12:27:18;;;;;;;8.18;3.35;;;1.50;99.90;;;;;;5038379;28;20045;-77
2021/01/28 12:29:43;;;;;;;9.77;3.72;;;1.50;99.90;;;;;;5035411;28;20412;-77
2021/01/28 12:32:09;;;;;;;7.28;3.67;;;1.60;99.90;;;;;;5025204;28;20071;-77
2021/01/28 12:34:36;;;;;;;8.82;4.03;;;1.70;99.90;;;;;;5008153;28;20091;-77
2021/01/28 12:37:03;;;;;;;11.55;5.70;;;1.70;99.90;;;;;;5039321;28;20060;-77
2021/01/28 12:39:29;;;;;;;8.80;4.70;;;1.70;99.90;;;;;;5000122;28;20037;-78
2021/01/28 12:41:58;;;;;;;11.15;5.38;;;1.70;99.90;;;;;;5033068;28;20599;-78
2021/01/28 12:44:24;;;;;;;9.52;5.78;;;1.80;99.90;;;;;;5031149;28;20095;-78
2021/01/28 12:46:50;;;;;;;13.77;6.60;;;1.80;99.90;;;;;;5035081;28;20037;-78
2021/01/28 12:49:16;;;;;;;11.80;7.07;;;1.80;99.90;;;;;;5034375;28;20403;-78
2021/01/28 12:51:42;;;;;;;12.15;6.78;;;1.80;99.90;;;;;;5054906;28;20087;-77
2021/01/28 12:54:11;;;;;;;13.32;7.82;;;1.70;99.90;;;;;;5038385;28;20057;-77
2021/01/28 12:56:37;;;;;;;15.07;7.95;;;1.80;99.90;;;;;;4998737;28;20037;-77
2021/01/28 12:59:03;;;;;;;13.48;7.07;;;1.70;99.90;;;;;;4997065;28;20095;-77
2021/01/28 13:01:29;;;;;;;9.50;5.40;;;1.80;99.90;;;;;;5011777;28;20469;-77
2021/01/28 13:03:55;;;;;;;9.63;5.55;;;1.80;99.90;;;;;;4995862;28;20040;-77
2021/01/28 13:06:21;;;;;;;13.10;5.50;;;1.80;99.90;;;;;;5030133;28;20040;-77
2021/01/28 13:08:47;;;;;;;9.95;5.28;;;1.80;99.90;;;;;;5012995;28;20671;-77
2021/01/28 13:11:13;;;;;;;17.30;8.23;;;1.70;99.90;;;;;;4996458;28;20033;-77
2021/01/28 13:13:39;;;;;;;8.27;4.55;;;1.70;99.90;;;;;;4997589;28;20041;-77
2021/01/28 13:16:06;;;;;;;10.82;5.70;;;1.80;99.90;;;;;;5012612;28;20528;-77
2021/01/28 13:18:32;;;;;;;9.00;4.63;;;1.80;99.90;;;;;;5020151;28;20033;-76
2021/01/28 13:20:59;;;;;;;6.47;3.55;;;1.80;99.90;;;;;;5050474;28;20021;-76
2021/01/28 13:23:25;;;;;;;9.93;4.20;;;1.80;99.90;;;;;;5031411;28;20073;-76
2021/01/28 13:25:51;;;;;;;9.60;4.32;;;1.70;99.90;;;;;;5030892;28;20491;-76
2021/01/28 13:28:17;;;;;;;6.75;4.03;;;1.80;99.90;;;;;;5026510;28;20410;-76
2021/01/28 13:30:43;;;;;;;5.68;3.70;;;1.70;99.90;;;;;;5032355;28;20398;-76
2021/01/28 13:33:09;;;;;;;8.93;3.88;;;1.70;99.90;;;;;;5010920;28;20521;-77
2021/01/28 13:35:35;;;;;;;7.28;3.88;;;1.70;99.90;;;;;;5029401;28;20509;-77
2021/01/28 13:38:01;;;;;;;6.80;3.85;;;1.70;99.90;;;;;;5003287;28;20063;-77